Terminal Aerodrome Forecast
Issued by NWS Atlanta, GA

Home | Current Version | Previous Version | Text Only | Print | Product List | Glossary On
Versions: 1 2 3 4 5 6 7 8 9 10 11 12 13 14 15 16 17 18 19 20 21 22 23 24 25 26 27 28 29 30 31 32 33 34 35 36 37 38 39 40 41 42
000
FTUS42 KFFC 300348 AAB
TAFATL
TAF AMD
KATL 300348Z 3004/3106 10005KT P6SM VCSH SCT050 BKN100
     FM300900 09005KT P6SM -SHRA SCT006 OVC025
      TEMPO 3010/3014 5SM -RA BR BKN008
     FM301400 07009KT P6SM -RA OVC015
     FM301600 08008KT P6SM BKN025 BKN120
     FM301900 09010KT P6SM VCSH BKN035 PROB30 3019/3022 5SM -TSRA
      BKN025CB
     FM310100 09007KT P6SM SCT040 BKN100=

USA.gov is the U.S. government's official web portal to all federal, state and local government web resources and services.